Tzoanna Vi — SYHY — position and weather

sailwx.info

Track history (hours):
 
Tides and Currents Weather Stations Pressure Air Temp Water Temp Dewpoint Dewpoint Depression Visibility Wind Speed Wind Dir Waves Ship Positions

Tzoanna Vi

Last reported at 2015-Sep-02 22:14 UTC. Time now 2015-Sep-04 03:54 UTC.
Position N 38°04' E 024°07'.

Length 84 m; draft 2.4 m.

Type: Cargo ship. MMSI: 237991700.

Date/timePositionNaut miles runAvg speedWind from/ knotsBaromVisibWave heightAir tempDewpointWater temp
2015-Sep-02 22:14N 38°04' E 024°07'7 8.5
2015-Sep-02 21:23N 37°57' E 024°08'10 8.5
2015-Sep-02 20:10N 37°47' E 024°10'66 4.8
2015-Sep-02 06:31N 36°43' E 024°28'0 0.0
2015-Sep-02 05:32N 36°43' E 024°28'0 0.0
2015-Sep-02 04:27N 36°43' E 024°28'0 0.0
2015-Sep-02 03:25N 36°43' E 024°28'0 0.0
2015-Sep-02 02:33N 36°43' E 024°28'0 0.0
2015-Sep-02 01:31N 36°43' E 024°28'0 0.0
2015-Sep-02 00:33N 36°43' E 024°28'0 0.0
2015-Sep-01 22:09N 36°43' E 024°28'1 0.1
2015-Sep-01 14:21N 36°42' E 024°27'0 0.0
2015-Sep-01 08:31N 36°42' E 024°27'40 3.6
2015-Aug-31 21:25N 37°15' E 023°59'8 9.6
2015-Aug-31 20:33N 37°22' E 023°55'10 9.9
2015-Aug-31 19:33N 37°31' E 023°49'9 9.5
2015-Aug-31 18:33N 37°39' E 023°43'10 9.6
2015-Aug-31 17:33N 37°48' E 023°38'10 9.9
2015-Aug-31 16:33N 37°57' E 023°34'0 0.4
2015-Aug-31 15:32N 37°58' E 023°34'0 0.0
2015-Aug-31 14:33N 37°58' E 023°34'0 0.0
2015-Aug-31 13:33N 37°58' E 023°34'0 0.0
2015-Aug-31 12:33N 37°58' E 023°34'0 0.0
2015-Aug-31 11:33N 37°58' E 023°34'0 0.0
2015-Aug-31 10:33N 37°58' E 023°34'0 0.0
2015-Aug-31 09:33N 37°58' E 023°34'0 0.0
2015-Aug-31 08:33N 37°58' E 023°34'0 0.0
2015-Aug-31 07:33N 37°58' E 023°34'0 0.0
2015-Aug-31 06:33N 37°58' E 023°34'0 0.0
2015-Aug-31 05:33N 37°58' E 023°34'0 0.0
2015-Aug-31 04:33N 37°58' E 023°34'0 0.0
2015-Aug-31 03:33N 37°58' E 023°34'0 0.0
2015-Aug-31 02:33N 37°58' E 023°34'0 0.0
2015-Aug-31 01:33N 37°58' E 023°34'0 0.0
2015-Aug-31 00:33N 37°58' E 023°34'0 0.0
2015-Aug-30 23:33N 37°58' E 023°34'0 0.0
2015-Aug-30 22:33N 37°58' E 023°34'0 0.0
2015-Aug-30 21:33N 37°58' E 023°34'0 0.0
2015-Aug-30 20:33N 37°58' E 023°34'0 0.0
2015-Aug-30 19:33N 37°58' E 023°34'0 0.0
2015-Aug-30 18:33N 37°58' E 023°34'0 0.0
2015-Aug-30 17:33N 37°58' E 023°34'0 0.0
2015-Aug-30 16:33N 37°58' E 023°34'0 0.0
2015-Aug-30 15:33N 37°58' E 023°34'0 0.0
2015-Aug-30 14:33N 37°58' E 023°34'0 0.0
2015-Aug-30 13:33N 37°58' E 023°34'0 0.0
2015-Aug-30 12:33N 37°58' E 023°34'0 0.0
2015-Aug-30 11:33N 37°58' E 023°34'0 0.0
2015-Aug-30 10:33N 37°58' E 023°34'0 0.0
2015-Aug-30 09:33N 37°58' E 023°34'0 0.0
2015-Aug-30 08:33N 37°58' E 023°34'0 0.0
2015-Aug-30 07:33N 37°58' E 023°34'0 0.0
2015-Aug-30 06:33N 37°58' E 023°34'0 0.0
2015-Aug-30 05:33N 37°58' E 023°34'0 0.0
2015-Aug-30 04:33N 37°58' E 023°34'0 0.0
2015-Aug-30 03:33N 37°58' E 023°34'0 0.0
2015-Aug-30 02:33N 37°58' E 023°34'0 0.0
2015-Aug-30 01:33N 37°58' E 023°34'0 0.0
2015-Aug-30 00:33N 37°58' E 023°34'0 0.0
2015-Aug-29 23:33N 37°58' E 023°34'0 0.0
2015-Aug-29 22:33N 37°58' E 023°34'0 0.0
2015-Aug-29 21:33N 37°58' E 023°34'0 0.0
2015-Aug-29 20:33N 37°58' E 023°34'0 0.0
2015-Aug-29 19:33N 37°58' E 023°34'0 0.0
2015-Aug-29 18:33N 37°58' E 023°34'0 0.0
2015-Aug-29 17:33N 37°58' E 023°34'0 0.0
2015-Aug-29 16:33N 37°58' E 023°34'0 0.0
2015-Aug-29 15:33N 37°58' E 023°34'0 0.0
2015-Aug-29 14:33N 37°58' E 023°34'0 0.0
2015-Aug-29 13:33N 37°58' E 023°34'0 0.0
2015-Aug-29 12:33N 37°58' E 023°34'0 0.0
2015-Aug-29 11:33N 37°58' E 023°34'0 0.0
2015-Aug-29 10:33N 37°58' E 023°34'0 0.0
2015-Aug-29 09:33N 37°58' E 023°34'0 0.0
2015-Aug-29 08:33N 37°58' E 023°34'0 0.0
2015-Aug-29 07:33N 37°58' E 023°34'0 0.0
2015-Aug-29 06:33N 37°58' E 023°34'0 0.0
2015-Aug-29 05:33N 37°58' E 023°34'0 0.0
2015-Aug-29 04:33N 37°58' E 023°34'0 0.0
2015-Aug-29 03:33N 37°58' E 023°34'0 0.0
2015-Aug-29 02:33N 37°58' E 023°34'0 0.0
2015-Aug-29 01:33N 37°58' E 023°34'0 0.0
2015-Aug-29 00:33N 37°58' E 023°34'0 0.0
2015-Aug-28 23:33N 37°58' E 023°34'0 0.0
2015-Aug-28 22:33N 37°58' E 023°34'0 0.0
2015-Aug-28 21:33N 37°58' E 023°34'0 0.0
2015-Aug-28 20:33N 37°58' E 023°34'0 0.0
2015-Aug-28 19:33N 37°58' E 023°34'0 0.0
2015-Aug-28 18:33N 37°58' E 023°34'0 0.0
2015-Aug-28 17:33N 37°58' E 023°34'0 0.0
2015-Aug-28 16:33N 37°58' E 023°34'0 0.0
2015-Aug-28 15:33N 37°58' E 023°34'0 0.0
2015-Aug-28 14:33N 37°58' E 023°34'0 0.0
2015-Aug-28 13:33N 37°58' E 023°34'0 0.0
2015-Aug-28 12:33N 37°58' E 023°34'0 0.0
2015-Aug-28 11:33N 37°58' E 023°34'0 0.0
2015-Aug-28 10:33N 37°58' E 023°34'0 0.0
2015-Aug-28 09:33N 37°58' E 023°34'0 0.0
2015-Aug-28 08:33N 37°58' E 023°34'0 0.0
2015-Aug-28 07:33N 37°58' E 023°34'0 0.0
2015-Aug-28 06:33N 37°58' E 023°34'0 0.0
2015-Aug-28 05:33N 37°58' E 023°34'0 0.0
2015-Aug-28 04:33N 37°58' E 023°34'0 0.0
2015-Aug-28 03:33N 37°58' E 023°34'0 0.0
2015-Aug-28 02:33N 37°58' E 023°34'0 0.0
2015-Aug-28 01:33N 37°58' E 023°34'0 0.0
2015-Aug-28 00:33N 37°58' E 023°34'0 0.0
2015-Aug-27 23:33N 37°58' E 023°34'0 0.0
2015-Aug-27 22:33N 37°58' E 023°34'0 0.0
2015-Aug-27 21:33N 37°58' E 023°34'0 0.0
2015-Aug-27 20:33N 37°58' E 023°34'0 0.0
2015-Aug-27 19:33N 37°58' E 023°34'0 0.0
2015-Aug-27 18:33N 37°58' E 023°34'0 0.0
2015-Aug-27 17:33N 37°58' E 023°34'0 0.0
2015-Aug-27 16:33N 37°58' E 023°34'0 0.0
2015-Aug-27 15:33N 37°58' E 023°34'0 0.0
2015-Aug-27 14:33N 37°58' E 023°34'0 0.0
2015-Aug-27 13:33N 37°58' E 023°34'0 0.0
2015-Aug-27 12:33N 37°58' E 023°34'0 0.0
2015-Aug-27 11:33N 37°58' E 023°34'0 0.0
2015-Aug-27 10:33N 37°58' E 023°34'0 0.0
2015-Aug-27 09:33N 37°58' E 023°34'0 0.0
2015-Aug-27 08:34N 37°58' E 023°34'0 0.0
2015-Aug-27 07:33N 37°58' E 023°34'0 0.0
2015-Aug-27 06:33N 37°58' E 023°34'0 0.0
2015-Aug-27 05:33N 37°58' E 023°34'0 0.1
2015-Aug-27 04:33N 37°58' E 023°34'3 2.6
2015-Aug-27 03:33N 37°55' E 023°36'5 5.5
2015-Aug-27 02:33N 37°51' E 023°39'7 7.0
2015-Aug-27 01:33N 37°44' E 023°43'7 6.8
2015-Aug-27 00:33N 37°40' E 023°50'8 8.1
2015-Aug-26 23:32N 37°38' E 023°60'  
Track history (hours):
 
Tides and Currents Weather Stations Pressure Air Temp Water Temp Dewpoint Dewpoint Depression Visibility Wind Speed Wind Dir Waves Ship Positions

Tzoanna Vi

Last reported at 2015-Sep-02 22:14 UTC. Time now 2015-Sep-04 03:54 UTC.
Position N 38°04' E 024°07'.

Length 84 m; draft 2.4 m.

Type: Cargo ship. MMSI: 237991700.

Date/timePositionNaut miles runAvg speedWind from/ knotsBaromVisibWave heightAir tempDewpointWater temp
2015-Sep-02 22:14N 38°04' E 024°07'7 8.5
2015-Sep-02 21:23N 37°57' E 024°08'10 8.5
2015-Sep-02 20:10N 37°47' E 024°10'66 4.8
2015-Sep-02 06:31N 36°43' E 024°28'0 0.0
2015-Sep-02 05:32N 36°43' E 024°28'0 0.0
2015-Sep-02 04:27N 36°43' E 024°28'0 0.0
2015-Sep-02 03:25N 36°43' E 024°28'0 0.0
2015-Sep-02 02:33N 36°43' E 024°28'0 0.0
2015-Sep-02 01:31N 36°43' E 024°28'0 0.0
2015-Sep-02 00:33N 36°43' E 024°28'0 0.0
2015-Sep-01 22:09N 36°43' E 024°28'1 0.1
2015-Sep-01 14:21N 36°42' E 024°27'0 0.0
2015-Sep-01 08:31N 36°42' E 024°27'40 3.6
2015-Aug-31 21:25N 37°15' E 023°59'8 9.6
2015-Aug-31 20:33N 37°22' E 023°55'10 9.9
2015-Aug-31 19:33N 37°31' E 023°49'9 9.5
2015-Aug-31 18:33N 37°39' E 023°43'10 9.6
2015-Aug-31 17:33N 37°48' E 023°38'10 9.9
2015-Aug-31 16:33N 37°57' E 023°34'0 0.4
2015-Aug-31 15:32N 37°58' E 023°34'0 0.0
2015-Aug-31 14:33N 37°58' E 023°34'0 0.0
2015-Aug-31 13:33N 37°58' E 023°34'0 0.0
2015-Aug-31 12:33N 37°58' E 023°34'0 0.0
2015-Aug-31 11:33N 37°58' E 023°34'0 0.0
2015-Aug-31 10:33N 37°58' E 023°34'0 0.0
2015-Aug-31 09:33N 37°58' E 023°34'0 0.0
2015-Aug-31 08:33N 37°58' E 023°34'0 0.0
2015-Aug-31 07:33N 37°58' E 023°34'0 0.0
2015-Aug-31 06:33N 37°58' E 023°34'0 0.0
2015-Aug-31 05:33N 37°58' E 023°34'0 0.0
2015-Aug-31 04:33N 37°58' E 023°34'0 0.0
2015-Aug-31 03:33N 37°58' E 023°34'0 0.0
2015-Aug-31 02:33N 37°58' E 023°34'0 0.0
2015-Aug-31 01:33N 37°58' E 023°34'0 0.0
2015-Aug-31 00:33N 37°58' E 023°34'0 0.0
2015-Aug-30 23:33N 37°58' E 023°34'0 0.0
2015-Aug-30 22:33N 37°58' E 023°34'0 0.0
2015-Aug-30 21:33N 37°58' E 023°34'0 0.0
2015-Aug-30 20:33N 37°58' E 023°34'0 0.0
2015-Aug-30 19:33N 37°58' E 023°34'0 0.0
2015-Aug-30 18:33N 37°58' E 023°34'0 0.0
2015-Aug-30 17:33N 37°58' E 023°34'0 0.0
2015-Aug-30 16:33N 37°58' E 023°34'0 0.0
2015-Aug-30 15:33N 37°58' E 023°34'0 0.0
2015-Aug-30 14:33N 37°58' E 023°34'0 0.0
2015-Aug-30 13:33N 37°58' E 023°34'0 0.0
2015-Aug-30 12:33N 37°58' E 023°34'0 0.0
2015-Aug-30 11:33N 37°58' E 023°34'0 0.0
2015-Aug-30 10:33N 37°58' E 023°34'0 0.0
2015-Aug-30 09:33N 37°58' E 023°34'0 0.0
2015-Aug-30 08:33N 37°58' E 023°34'0 0.0
2015-Aug-30 07:33N 37°58' E 023°34'0 0.0
2015-Aug-30 06:33N 37°58' E 023°34'0 0.0
2015-Aug-30 05:33N 37°58' E 023°34'0 0.0
2015-Aug-30 04:33N 37°58' E 023°34'0 0.0
2015-Aug-30 03:33N 37°58' E 023°34'0 0.0
2015-Aug-30 02:33N 37°58' E 023°34'0 0.0
2015-Aug-30 01:33N 37°58' E 023°34'0 0.0
2015-Aug-30 00:33N 37°58' E 023°34'0 0.0
2015-Aug-29 23:33N 37°58' E 023°34'0 0.0
2015-Aug-29 22:33N 37°58' E 023°34'0 0.0
2015-Aug-29 21:33N 37°58' E 023°34'0 0.0
2015-Aug-29 20:33N 37°58' E 023°34'0 0.0
2015-Aug-29 19:33N 37°58' E 023°34'0 0.0
2015-Aug-29 18:33N 37°58' E 023°34'0 0.0
2015-Aug-29 17:33N 37°58' E 023°34'0 0.0
2015-Aug-29 16:33N 37°58' E 023°34'0 0.0
2015-Aug-29 15:33N 37°58' E 023°34'0 0.0
2015-Aug-29 14:33N 37°58' E 023°34'0 0.0
2015-Aug-29 13:33N 37°58' E 023°34'0 0.0
2015-Aug-29 12:33N 37°58' E 023°34'0 0.0
2015-Aug-29 11:33N 37°58' E 023°34'0 0.0
2015-Aug-29 10:33N 37°58' E 023°34'0 0.0
2015-Aug-29 09:33N 37°58' E 023°34'0 0.0
2015-Aug-29 08:33N 37°58' E 023°34'0 0.0
2015-Aug-29 07:33N 37°58' E 023°34'0 0.0
2015-Aug-29 06:33N 37°58' E 023°34'0 0.0
2015-Aug-29 05:33N 37°58' E 023°34'0 0.0
2015-Aug-29 04:33N 37°58' E 023°34'0 0.0
2015-Aug-29 03:33N 37°58' E 023°34'0 0.0
2015-Aug-29 02:33N 37°58' E 023°34'0 0.0
2015-Aug-29 01:33N 37°58' E 023°34'0 0.0
2015-Aug-29 00:33N 37°58' E 023°34'0 0.0
2015-Aug-28 23:33N 37°58' E 023°34'0 0.0
2015-Aug-28 22:33N 37°58' E 023°34'0 0.0
2015-Aug-28 21:33N 37°58' E 023°34'0 0.0
2015-Aug-28 20:33N 37°58' E 023°34'0 0.0
2015-Aug-28 19:33N 37°58' E 023°34'0 0.0
2015-Aug-28 18:33N 37°58' E 023°34'0 0.0
2015-Aug-28 17:33N 37°58' E 023°34'0 0.0
2015-Aug-28 16:33N 37°58' E 023°34'0 0.0
2015-Aug-28 15:33N 37°58' E 023°34'0 0.0
2015-Aug-28 14:33N 37°58' E 023°34'0 0.0
2015-Aug-28 13:33N 37°58' E 023°34'0 0.0
2015-Aug-28 12:33N 37°58' E 023°34'0 0.0
2015-Aug-28 11:33N 37°58' E 023°34'0 0.0
2015-Aug-28 10:33N 37°58' E 023°34'0 0.0
2015-Aug-28 09:33N 37°58' E 023°34'0 0.0
2015-Aug-28 08:33N 37°58' E 023°34'0 0.0
2015-Aug-28 07:33N 37°58' E 023°34'0 0.0
2015-Aug-28 06:33N 37°58' E 023°34'0 0.0
2015-Aug-28 05:33N 37°58' E 023°34'0 0.0
2015-Aug-28 04:33N 37°58' E 023°34'0 0.0
2015-Aug-28 03:33N 37°58' E 023°34'0 0.0
2015-Aug-28 02:33N 37°58' E 023°34'0 0.0
2015-Aug-28 01:33N 37°58' E 023°34'0 0.0
2015-Aug-28 00:33N 37°58' E 023°34'0 0.0
2015-Aug-27 23:33N 37°58' E 023°34'0 0.0
2015-Aug-27 22:33N 37°58' E 023°34'0 0.0
2015-Aug-27 21:33N 37°58' E 023°34'0 0.0
2015-Aug-27 20:33N 37°58' E 023°34'0 0.0
2015-Aug-27 19:33N 37°58' E 023°34'0 0.0
2015-Aug-27 18:33N 37°58' E 023°34'0 0.0
2015-Aug-27 17:33N 37°58' E 023°34'0 0.0
2015-Aug-27 16:33N 37°58' E 023°34'0 0.0
2015-Aug-27 15:33N 37°58' E 023°34'0 0.0
2015-Aug-27 14:33N 37°58' E 023°34'0 0.0
2015-Aug-27 13:33N 37°58' E 023°34'0 0.0
2015-Aug-27 12:33N 37°58' E 023°34'0 0.0
2015-Aug-27 11:33N 37°58' E 023°34'0 0.0
2015-Aug-27 10:33N 37°58' E 023°34'0 0.0
2015-Aug-27 09:33N 37°58' E 023°34'0 0.0
2015-Aug-27 08:34N 37°58' E 023°34'0 0.0
2015-Aug-27 07:33N 37°58' E 023°34'0 0.0
2015-Aug-27 06:33N 37°58' E 023°34'0 0.0
2015-Aug-27 05:33N 37°58' E 023°34'0 0.1
2015-Aug-27 04:33N 37°58' E 023°34'3 2.6
2015-Aug-27 03:33N 37°55' E 023°36'5 5.5
2015-Aug-27 02:33N 37°51' E 023°39'7 7.0
2015-Aug-27 01:33N 37°44' E 023°43'7 6.8
2015-Aug-27 00:33N 37°40' E 023°50'8 8.1
2015-Aug-26 23:32N 37°38' E 023°60'  

Dump ship's entire track history